createdAt,value
2019-01-31T00:01:26.975Z,58.04
2019-01-31T00:05:30.423Z,58.48
2019-01-31T00:09:33.881Z,58.85
2019-01-31T00:13:37.338Z,59.06
2019-01-31T00:17:40.777Z,59.39
2019-01-31T00:21:44.231Z,59.56
2019-01-31T00:25:47.761Z,59.74
2019-01-31T00:29:51.133Z,59.73
2019-01-31T00:33:54.575Z,59.92
2019-01-31T00:37:58.028Z,60.08
2019-01-31T00:42:01.481Z,60.21
2019-01-31T00:46:04.940Z,60.34
2019-01-31T00:50:08.402Z,60.42
2019-01-31T00:54:11.955Z,60.10
2019-01-31T00:58:15.552Z,60.07
2019-01-31T01:02:19.016Z,59.56
2019-01-31T01:06:22.472Z,59.50
2019-01-31T01:10:25.929Z,59.12
2019-01-31T01:14:29.378Z,59.15
2019-01-31T01:18:32.846Z,58.91
2019-01-31T01:22:36.291Z,59.13
2019-01-31T01:26:39.753Z,58.48
2019-01-31T01:30:43.212Z,58.61
2019-01-31T01:34:46.673Z,58.02
2019-01-31T01:38:50.135Z,57.79
2019-01-31T01:42:53.590Z,58.20
2019-01-31T01:46:57.048Z,56.93
2019-01-31T01:51:00.512Z,57.40
2019-01-31T01:55:03.961Z,58.58
2019-01-31T01:59:07.422Z,57.97
2019-01-31T02:03:10.888Z,58.13
2019-01-31T02:07:14.342Z,59.16
2019-01-31T02:11:17.797Z,59.61
2019-01-31T02:15:21.240Z,60.54
2019-01-31T02:19:24.702Z,61.15
2019-01-31T02:23:28.168Z,61.69
2019-01-31T02:27:31.632Z,61.64
2019-01-31T02:31:35.106Z,62.16
2019-01-31T02:35:38.614Z,62.76
2019-01-31T02:39:43.383Z,63.44
2019-01-31T02:43:47.053Z,63.89
2019-01-31T02:47:50.507Z,64.28
2019-01-31T02:51:53.968Z,64.43
2019-01-31T02:55:57.420Z,63.85
2019-01-31T03:00:00.875Z,63.72
2019-01-31T03:04:04.341Z,63.81
2019-01-31T03:08:07.799Z,63.63
2019-01-31T03:12:11.269Z,63.35
2019-01-31T03:16:14.717Z,63.08
2019-01-31T03:20:18.179Z,62.94
2019-01-31T03:24:21.636Z,63.07
2019-01-31T03:28:26.169Z,63.35
2019-01-31T03:32:29.638Z,63.55
2019-01-31T03:36:33.063Z,63.58
2019-01-31T03:40:36.524Z,63.51
2019-01-31T03:44:39.993Z,63.42
2019-01-31T03:48:43.437Z,63.41
2019-01-31T03:52:46.888Z,63.06
2019-01-31T03:56:50.343Z,62.88
2019-01-31T04:00:53.802Z,63.06
2019-01-31T04:04:57.260Z,63.11
2019-01-31T04:09:00.720Z,63.02
2019-01-31T04:13:04.241Z,62.72
2019-01-31T04:17:07.697Z,62.29
2019-01-31T04:21:11.155Z,62.37
2019-01-31T04:25:14.612Z,62.44
2019-01-31T04:29:18.066Z,62.31
2019-01-31T04:33:21.526Z,62.20
2019-01-31T04:37:24.990Z,62.27
2019-01-31T04:41:28.443Z,62.21
2019-01-31T04:45:31.901Z,62.17
2019-01-31T04:49:35.352Z,62.12
2019-01-31T04:53:38.810Z,62.02
2019-01-31T04:57:42.264Z,61.88
2019-01-31T05:01:46.686Z,62.02
2019-01-31T05:05:50.144Z,62.15
2019-01-31T05:09:53.587Z,62.03
2019-01-31T05:13:57.061Z,61.89
2019-01-31T05:18:00.502Z,61.54
2019-01-31T05:22:03.947Z,61.24
2019-01-31T05:26:07.410Z,61.06
2019-01-31T05:30:10.847Z,61.22
2019-01-31T05:34:14.296Z,61.28
2019-01-31T05:38:17.751Z,61.44
2019-01-31T05:42:21.207Z,61.34
2019-01-31T05:46:24.652Z,61.30
2019-01-31T05:50:28.107Z,61.19
2019-01-31T05:54:31.555Z,61.05
2019-01-31T05:58:35.007Z,61.08
2019-01-31T06:02:38.461Z,60.97
2019-01-31T06:06:41.900Z,60.78
2019-01-31T06:10:45.361Z,61.06
2019-01-31T06:14:48.813Z,60.75
2019-01-31T06:18:52.273Z,60.67
2019-01-31T06:22:55.722Z,61.21
2019-01-31T06:26:59.166Z,61.20
2019-01-31T06:31:02.616Z,61.04
2019-01-31T06:35:06.080Z,60.16
2019-01-31T06:39:09.534Z,59.42
2019-01-31T06:43:12.986Z,59.50
2019-01-31T06:47:16.425Z,59.26
2019-01-31T06:51:19.884Z,59.06
2019-01-31T06:55:23.349Z,59.04
2019-01-31T06:59:26.858Z,59.90
2019-01-31T07:03:30.304Z,59.00
2019-01-31T07:07:33.754Z,58.91
2019-01-31T07:11:37.209Z,58.88
2019-01-31T07:15:40.669Z,58.47
2019-01-31T07:19:44.120Z,58.25
2019-01-31T07:23:47.574Z,58.12
2019-01-31T07:27:51.032Z,58.02
2019-01-31T07:31:54.487Z,58.09
2019-01-31T07:35:57.952Z,58.48
2019-01-31T07:40:01.405Z,58.16
2019-01-31T07:44:04.851Z,57.93
2019-01-31T07:48:08.302Z,57.85
2019-01-31T07:52:11.766Z,57.56
2019-01-31T07:56:15.226Z,57.02
2019-01-31T08:00:18.683Z,56.97
2019-01-31T08:04:22.128Z,56.97
2019-01-31T08:08:25.582Z,57.63
2019-01-31T08:12:29.046Z,57.38
2019-01-31T08:16:32.498Z,56.57
2019-01-31T08:20:35.957Z,56.82
2019-01-31T08:24:39.402Z,56.61
2019-01-31T08:28:42.871Z,57.85
2019-01-31T08:32:46.317Z,57.48
2019-01-31T08:36:49.774Z,57.73
2019-01-31T08:40:53.230Z,57.32
2019-01-31T08:44:56.676Z,57.42
2019-01-31T08:49:00.137Z,57.53
2019-01-31T08:53:03.586Z,57.39
2019-01-31T08:57:07.045Z,57.45
2019-01-31T09:01:10.491Z,57.12
2019-01-31T09:05:13.951Z,57.32
2019-01-31T09:09:17.406Z,57.32
2019-01-31T09:13:20.859Z,57.29
2019-01-31T09:17:24.313Z,57.32
2019-01-31T09:21:27.751Z,57.54
2019-01-31T09:25:31.207Z,57.70
2019-01-31T09:29:34.661Z,57.42
2019-01-31T09:33:38.121Z,57.10
2019-01-31T09:37:41.568Z,56.92
2019-01-31T09:41:45.029Z,56.70
2019-01-31T09:45:48.490Z,56.46
2019-01-31T09:49:52.016Z,56.60
2019-01-31T09:53:55.482Z,56.11
2019-01-31T09:57:58.947Z,55.50
2019-01-31T10:02:02.398Z,55.16
2019-01-31T10:06:05.847Z,55.13
2019-01-31T10:10:09.325Z,55.06
2019-01-31T10:14:12.812Z,54.42
2019-01-31T10:18:16.194Z,53.93
2019-01-31T10:22:19.686Z,53.36
2019-01-31T10:26:23.109Z,53.07
2019-01-31T10:30:26.583Z,52.91
2019-01-31T10:34:30.021Z,52.41
2019-01-31T10:38:33.558Z,52.10
2019-01-31T10:42:36.989Z,51.08
2019-01-31T10:46:40.437Z,50.99
2019-01-31T10:50:43.890Z,50.75
2019-01-31T10:54:47.342Z,50.42
2019-01-31T10:58:50.778Z,50.41
2019-01-31T11:02:54.239Z,51.30
2019-01-31T11:06:57.686Z,51.34
2019-01-31T11:11:01.149Z,51.50
2019-01-31T11:15:05.565Z,51.85
2019-01-31T11:19:12.590Z,52.00
2019-01-31T11:23:14.174Z,52.62
2019-01-31T11:27:17.624Z,52.77
2019-01-31T11:31:21.085Z,53.26
2019-01-31T11:35:24.545Z,53.72
2019-01-31T11:39:27.984Z,53.81
2019-01-31T11:43:31.429Z,53.94
2019-01-31T11:47:34.897Z,54.21
2019-01-31T11:51:38.345Z,54.67
2019-01-31T11:55:41.802Z,54.99
2019-01-31T11:59:46.826Z,55.20
2019-01-31T12:03:50.355Z,55.58
2019-01-31T12:07:53.811Z,55.52
2019-01-31T12:11:57.589Z,56.01
2019-01-31T12:16:01.033Z,55.85
2019-01-31T12:20:04.486Z,56.33
2019-01-31T12:24:16.117Z,56.57
2019-01-31T12:28:14.278Z,56.54
2019-01-31T12:32:17.736Z,56.76
2019-01-31T12:36:21.185Z,56.90
2019-01-31T12:40:24.655Z,56.78
2019-01-31T12:44:28.114Z,57.40
2019-01-31T12:48:31.575Z,57.53
2019-01-31T12:52:35.031Z,57.61
2019-01-31T12:56:38.521Z,57.86
2019-01-31T13:00:41.941Z,58.42
2019-01-31T13:04:45.671Z,59.33
2019-01-31T13:08:49.132Z,60.28
2019-01-31T13:12:52.590Z,60.69
2019-01-31T13:16:56.046Z,60.68
2019-01-31T13:20:59.502Z,60.60
2019-01-31T13:25:02.961Z,60.47
2019-01-31T13:29:06.426Z,59.43
2019-01-31T13:33:09.892Z,59.90
2019-01-31T13:37:13.342Z,60.52
2019-01-31T13:41:17.981Z,60.37
2019-01-31T13:45:21.414Z,60.94
2019-01-31T13:49:24.873Z,60.88
2019-01-31T13:53:28.333Z,61.29
2019-01-31T13:57:31.787Z,61.29
2019-01-31T14:01:35.249Z,61.00
2019-01-31T14:05:38.708Z,61.06
2019-01-31T14:09:42.180Z,60.94
2019-01-31T14:13:45.636Z,60.75
2019-01-31T14:17:49.095Z,60.77
2019-01-31T14:21:52.565Z,60.43
2019-01-31T14:25:56.042Z,60.00
2019-01-31T14:29:59.486Z,59.92
2019-01-31T14:34:02.933Z,59.40
2019-01-31T14:38:06.398Z,58.79
2019-01-31T14:42:09.854Z,58.89
2019-01-31T14:46:13.324Z,58.38
2019-01-31T14:50:16.770Z,58.30
2019-01-31T14:54:20.214Z,58.45
2019-01-31T14:58:23.673Z,58.25
2019-01-31T15:02:27.143Z,58.28
2019-01-31T15:06:30.592Z,58.27
2019-01-31T15:10:34.054Z,58.54
2019-01-31T15:14:37.992Z,58.43
2019-01-31T15:18:41.608Z,58.41
2019-01-31T15:22:44.993Z,58.54
2019-01-31T15:26:48.450Z,58.47
2019-01-31T15:30:51.908Z,58.28
2019-01-31T15:34:55.351Z,58.58
2019-01-31T15:38:58.818Z,58.72
2019-01-31T15:43:02.273Z,58.72
2019-01-31T15:47:05.727Z,58.87
2019-01-31T15:51:09.255Z,58.68
2019-01-31T15:55:12.696Z,58.67
2019-01-31T15:59:16.157Z,58.71
2019-01-31T16:03:19.622Z,59.04
2019-01-31T16:07:23.083Z,59.27
2019-01-31T16:11:26.559Z,59.11
2019-01-31T16:15:30.036Z,59.04
2019-01-31T16:19:33.448Z,59.13
2019-01-31T16:23:36.918Z,59.20
2019-01-31T16:27:40.377Z,59.31
2019-01-31T16:31:43.878Z,59.30
2019-01-31T16:35:48.293Z,59.36
2019-01-31T16:39:51.756Z,59.60
2019-01-31T16:43:55.220Z,59.77
2019-01-31T16:47:58.689Z,59.84
2019-01-31T16:52:02.142Z,59.68
2019-01-31T16:56:05.594Z,59.87
2019-01-31T17:00:09.049Z,59.57
2019-01-31T17:04:12.509Z,59.79
2019-01-31T17:08:15.968Z,59.67
2019-01-31T17:12:19.435Z,59.64
2019-01-31T17:16:22.895Z,59.88
2019-01-31T17:20:26.354Z,60.16
2019-01-31T17:24:29.915Z,60.22
2019-01-31T17:28:33.385Z,59.40
2019-01-31T17:32:36.836Z,59.04
2019-01-31T17:36:40.292Z,59.09
2019-01-31T17:40:43.754Z,59.16
2019-01-31T17:44:47.206Z,58.85
2019-01-31T17:48:50.687Z,59.79
2019-01-31T17:52:54.139Z,60.33
2019-01-31T17:56:57.605Z,60.05
2019-01-31T18:01:01.069Z,60.78
2019-01-31T18:05:04.530Z,61.25
2019-01-31T18:09:08.046Z,60.76
2019-01-31T18:13:11.512Z,60.09
2019-01-31T18:17:14.981Z,59.89
2019-01-31T18:21:18.445Z,60.00
2019-01-31T18:25:21.893Z,60.59
2019-01-31T18:29:25.332Z,60.69
2019-01-31T18:33:28.780Z,60.95
2019-01-31T18:37:32.226Z,60.84
2019-01-31T18:41:35.690Z,60.85
2019-01-31T18:45:39.145Z,60.72
2019-01-31T18:49:42.596Z,60.41
2019-01-31T18:53:46.057Z,60.60
2019-01-31T18:57:49.528Z,61.19
2019-01-31T19:01:52.983Z,61.29
2019-01-31T19:05:56.452Z,61.83
2019-01-31T19:09:59.904Z,62.52
2019-01-31T19:14:03.380Z,62.95
2019-01-31T19:18:07.808Z,62.95
2019-01-31T19:22:11.279Z,62.88
2019-01-31T19:26:14.794Z,62.23
2019-01-31T19:30:18.248Z,61.58
2019-01-31T19:34:21.765Z,61.65
2019-01-31T19:38:25.222Z,61.84
2019-01-31T19:42:28.689Z,62.00
2019-01-31T19:46:32.396Z,62.52
2019-01-31T19:50:36.813Z,62.77
2019-01-31T19:54:41.046Z,63.14
2019-01-31T19:58:44.505Z,63.08
2019-01-31T20:02:47.960Z,63.36
2019-01-31T20:06:51.422Z,63.26
2019-01-31T20:10:54.886Z,63.29
2019-01-31T20:14:58.385Z,62.77
2019-01-31T20:19:01.853Z,62.90
2019-01-31T20:23:05.318Z,63.57
2019-01-31T20:27:08.770Z,63.97
2019-01-31T20:31:12.232Z,63.92
2019-01-31T20:35:15.692Z,63.92
2019-01-31T20:39:19.156Z,63.77
2019-01-31T20:43:23.419Z,63.93
2019-01-31T20:47:26.962Z,63.98
2019-01-31T20:51:32.143Z,64.07
2019-01-31T20:55:35.744Z,64.63
2019-01-31T20:59:39.198Z,64.69
2019-01-31T21:03:42.650Z,64.14
2019-01-31T21:07:46.094Z,63.56
2019-01-31T21:11:49.552Z,63.56
2019-01-31T21:15:53.261Z,63.73
2019-01-31T21:19:57.834Z,63.54
2019-01-31T21:24:01.367Z,63.17
2019-01-31T21:28:04.818Z,62.78
2019-01-31T21:32:08.284Z,62.70
2019-01-31T21:36:11.747Z,62.46
2019-01-31T21:40:15.212Z,62.47
2019-01-31T21:44:18.668Z,62.55
2019-01-31T21:48:23.196Z,62.49
2019-01-31T21:52:26.659Z,62.15
2019-01-31T21:56:30.115Z,61.86
2019-01-31T22:00:33.565Z,61.63
2019-01-31T22:04:37.002Z,61.19
2019-01-31T22:08:40.458Z,61.27
2019-01-31T22:12:43.911Z,61.44
2019-01-31T22:16:47.358Z,61.44
2019-01-31T22:20:51.881Z,61.41
2019-01-31T22:24:55.319Z,61.44
2019-01-31T22:28:58.771Z,61.27
2019-01-31T22:33:02.220Z,61.36
2019-01-31T22:37:05.667Z,61.39
2019-01-31T22:41:09.111Z,61.37
2019-01-31T22:45:12.560Z,61.23
2019-01-31T22:49:16.010Z,61.06
2019-01-31T22:53:19.460Z,60.89
2019-01-31T22:57:22.912Z,60.60
2019-01-31T23:01:30.626Z,60.34
2019-01-31T23:05:34.082Z,60.00
2019-01-31T23:09:38.614Z,59.72
2019-01-31T23:13:42.058Z,59.58
2019-01-31T23:17:45.507Z,59.26
2019-01-31T23:21:48.951Z,59.21
2019-01-31T23:25:52.413Z,59.30
2019-01-31T23:29:55.861Z,59.40
2019-01-31T23:33:59.317Z,59.25
2019-01-31T23:38:02.774Z,59.01
2019-01-31T23:42:06.221Z,59.02
2019-01-31T23:46:09.673Z,58.58
2019-01-31T23:50:13.118Z,58.52
2019-01-31T23:54:16.581Z,58.40
2019-01-31T23:58:20.041Z,58.97
